Terminal Aerodrome Forecast
Issued by NWS

Home | Current Version | Previous Version | Text Only | Print | Product List | Glossary On
Versions: 1 2 3 4 5 6 7 8 9 10 11 12
105
FTUS42 TJSJ 171720
TAFJSJ
TAF
TJSJ 171720Z 1718/1818 06017G23KT P6SM FEW030 SCT050
     FM180000 08011KT P6SM VCSH SCT025 BKN040
     FM181350 07014KT P6SM SCT030 SCT060=

USA.gov is the U.S. government's official web portal to all federal, state and local government web resources and services.